sensor_id;sensor_type;location;lat;lon;timestamp;temperature;humidity
79571;DHT22;69034;49.444;7.758;2023-12-20T00:02:34;8.90;76.60
79571;DHT22;69034;49.444;7.758;2023-12-20T00:06:35;8.90;76.60
79571;DHT22;69034;49.444;7.758;2023-12-20T00:10:36;8.90;76.50
79571;DHT22;69034;49.444;7.758;2023-12-20T00:14:36;8.90;76.50
79571;DHT22;69034;49.444;7.758;2023-12-20T00:18:37;8.90;76.50
79571;DHT22;69034;49.444;7.758;2023-12-20T00:22:37;8.90;76.50
79571;DHT22;69034;49.444;7.758;2023-12-20T00:26:38;8.90;76.40
79571;DHT22;69034;49.444;7.758;2023-12-20T00:30:38;8.90;76.40
79571;DHT22;69034;49.444;7.758;2023-12-20T00:34:39;8.90;76.30
79571;DHT22;69034;49.444;7.758;2023-12-20T00:38:40;8.90;76.30
79571;DHT22;69034;49.444;7.758;2023-12-20T00:42:40;8.90;76.30
79571;DHT22;69034;49.444;7.758;2023-12-20T00:46:44;8.90;76.20
79571;DHT22;69034;49.444;7.758;2023-12-20T00:50:44;8.90;76.20
79571;DHT22;69034;49.444;7.758;2023-12-20T00:54:45;8.90;76.20
79571;DHT22;69034;49.444;7.758;2023-12-20T00:58:46;8.90;76.20
79571;DHT22;69034;49.444;7.758;2023-12-20T01:02:46;8.90;76.20
79571;DHT22;69034;49.444;7.758;2023-12-20T01:06:49;8.90;76.20
79571;DHT22;69034;49.444;7.758;2023-12-20T01:10:50;8.90;76.30
79571;DHT22;69034;49.444;7.758;2023-12-20T01:14:50;8.90;76.20
79571;DHT22;69034;49.444;7.758;2023-12-20T01:18:51;8.90;76.20
79571;DHT22;69034;49.444;7.758;2023-12-20T01:22:52;8.90;76.20
79571;DHT22;69034;49.444;7.758;2023-12-20T01:26:53;8.80;76.30
79571;DHT22;69034;49.444;7.758;2023-12-20T01:30:53;8.80;76.20
79571;DHT22;69034;49.444;7.758;2023-12-20T01:34:54;8.50;76.50
79571;DHT22;69034;49.444;7.758;2023-12-20T01:38:55;8.40;76.90
79571;DHT22;69034;49.444;7.758;2023-12-20T01:43:13;8.20;77.20
79571;DHT22;69034;49.444;7.758;2023-12-20T01:47:14;8.10;77.40
79571;DHT22;69034;49.444;7.758;2023-12-20T01:51:15;8.00;77.60
79571;DHT22;69034;49.444;7.758;2023-12-20T01:55:16;8.00;77.60
79571;DHT22;69034;49.444;7.758;2023-12-20T01:59:18;7.90;77.70
79571;DHT22;69034;49.444;7.758;2023-12-20T02:03:20;7.90;77.80
79571;DHT22;69034;49.444;7.758;2023-12-20T02:07:22;7.80;78.00
79571;DHT22;69034;49.444;7.758;2023-12-20T02:11:23;7.80;78.10
79571;DHT22;69034;49.444;7.758;2023-12-20T02:15:25;7.70;78.10
79571;DHT22;69034;49.444;7.758;2023-12-20T02:19:26;7.70;78.20
79571;DHT22;69034;49.444;7.758;2023-12-20T02:23:26;7.70;78.20
79571;DHT22;69034;49.444;7.758;2023-12-20T02:27:28;7.70;78.30
79571;DHT22;69034;49.444;7.758;2023-12-20T02:31:29;7.70;78.30
79571;DHT22;69034;49.444;7.758;2023-12-20T02:35:29;7.60;78.40
79571;DHT22;69034;49.444;7.758;2023-12-20T02:39:30;7.60;78.40
79571;DHT22;69034;49.444;7.758;2023-12-20T02:43:31;7.60;78.50
79571;DHT22;69034;49.444;7.758;2023-12-20T02:47:31;7.60;78.50
79571;DHT22;69034;49.444;7.758;2023-12-20T02:51:32;7.60;78.60
79571;DHT22;69034;49.444;7.758;2023-12-20T02:55:33;7.60;78.60
79571;DHT22;69034;49.444;7.758;2023-12-20T02:59:33;7.60;78.70
79571;DHT22;69034;49.444;7.758;2023-12-20T03:03:34;7.50;78.80
79571;DHT22;69034;49.444;7.758;2023-12-20T03:07:36;7.50;78.80
79571;DHT22;69034;49.444;7.758;2023-12-20T03:11:37;7.60;78.80
79571;DHT22;69034;49.444;7.758;2023-12-20T03:15:38;7.60;78.90
79571;DHT22;69034;49.444;7.758;2023-12-20T03:19:39;7.60;78.90
79571;DHT22;69034;49.444;7.758;2023-12-20T03:23:40;7.50;78.90
79571;DHT22;69034;49.444;7.758;2023-12-20T03:27:40;7.60;79.00
79571;DHT22;69034;49.444;7.758;2023-12-20T03:31:41;7.60;79.00
79571;DHT22;69034;49.444;7.758;2023-12-20T03:35:42;7.60;79.00
79571;DHT22;69034;49.444;7.758;2023-12-20T03:39:43;7.60;79.00
79571;DHT22;69034;49.444;7.758;2023-12-20T03:43:43;7.60;79.10
79571;DHT22;69034;49.444;7.758;2023-12-20T03:47:44;7.60;79.10
79571;DHT22;69034;49.444;7.758;2023-12-20T03:51:45;7.60;79.10
79571;DHT22;69034;49.444;7.758;2023-12-20T03:55:45;7.60;79.10
79571;DHT22;69034;49.444;7.758;2023-12-20T03:59:46;7.60;79.20
79571;DHT22;69034;49.444;7.758;2023-12-20T04:03:47;7.60;79.20
79571;DHT22;69034;49.444;7.758;2023-12-20T04:07:48;7.60;79.20
79571;DHT22;69034;49.444;7.758;2023-12-20T04:11:50;7.60;79.30
79571;DHT22;69034;49.444;7.758;2023-12-20T04:15:51;7.60;79.30
79571;DHT22;69034;49.444;7.758;2023-12-20T04:19:52;7.60;79.30
79571;DHT22;69034;49.444;7.758;2023-12-20T04:23:53;7.60;79.30
79571;DHT22;69034;49.444;7.758;2023-12-20T04:27:53;7.60;79.40
79571;DHT22;69034;49.444;7.758;2023-12-20T04:31:54;7.60;79.40
79571;DHT22;69034;49.444;7.758;2023-12-20T04:35:56;7.60;79.40
79571;DHT22;69034;49.444;7.758;2023-12-20T04:39:58;7.60;79.40
79571;DHT22;69034;49.444;7.758;2023-12-20T04:43:58;7.70;79.40
79571;DHT22;69034;49.444;7.758;2023-12-20T04:48:01;7.70;79.50
79571;DHT22;69034;49.444;7.758;2023-12-20T04:52:02;7.70;79.50
79571;DHT22;69034;49.444;7.758;2023-12-20T04:56:03;7.70;79.50
79571;DHT22;69034;49.444;7.758;2023-12-20T05:00:05;7.70;79.60
79571;DHT22;69034;49.444;7.758;2023-12-20T05:04:06;7.70;79.60
79571;DHT22;69034;49.444;7.758;2023-12-20T05:08:07;7.70;79.60
79571;DHT22;69034;49.444;7.758;2023-12-20T05:12:08;7.70;79.70
79571;DHT22;69034;49.444;7.758;2023-12-20T05:16:09;7.70;79.70
79571;DHT22;69034;49.444;7.758;2023-12-20T05:20:09;7.60;79.80
79571;DHT22;69034;49.444;7.758;2023-12-20T05:24:10;7.50;79.80
79571;DHT22;69034;49.444;7.758;2023-12-20T05:28:11;7.50;79.90
79571;DHT22;69034;49.444;7.758;2023-12-20T05:32:12;7.40;79.90
79571;DHT22;69034;49.444;7.758;2023-12-20T05:36:12;7.40;79.80
79571;DHT22;69034;49.444;7.758;2023-12-20T05:40:15;7.40;79.90
79571;DHT22;69034;49.444;7.758;2023-12-20T05:44:16;7.40;79.90
79571;DHT22;69034;49.444;7.758;2023-12-20T05:48:16;7.40;79.90
79571;DHT22;69034;49.444;7.758;2023-12-20T05:52:17;7.40;79.90
79571;DHT22;69034;49.444;7.758;2023-12-20T05:56:18;7.40;80.10
79571;DHT22;69034;49.444;7.758;2023-12-20T06:00:18;7.40;80.20
79571;DHT22;69034;49.444;7.758;2023-12-20T06:04:19;7.50;80.30
79571;DHT22;69034;49.444;7.758;2023-12-20T06:08:20;7.40;80.30
79571;DHT22;69034;49.444;7.758;2023-12-20T06:12:20;7.40;80.40
79571;DHT22;69034;49.444;7.758;2023-12-20T06:16:21;7.40;80.40
79571;DHT22;69034;49.444;7.758;2023-12-20T06:20:22;7.40;80.40
79571;DHT22;69034;49.444;7.758;2023-12-20T06:24:22;7.40;80.40
79571;DHT22;69034;49.444;7.758;2023-12-20T06:28:23;7.40;80.30
79571;DHT22;69034;49.444;7.758;2023-12-20T06:32:23;7.30;80.30
79571;DHT22;69034;49.444;7.758;2023-12-20T06:36:24;7.30;80.30
79571;DHT22;69034;49.444;7.758;2023-12-20T06:40:25;7.30;80.30
79571;DHT22;69034;49.444;7.758;2023-12-20T06:44:26;7.20;80.30
79571;DHT22;69034;49.444;7.758;2023-12-20T06:48:26;7.20;80.20
79571;DHT22;69034;49.444;7.758;2023-12-20T06:52:27;7.10;80.10
79571;DHT22;69034;49.444;7.758;2023-12-20T06:56:28;7.10;80.10
79571;DHT22;69034;49.444;7.758;2023-12-20T07:00:28;7.00;80.00
79571;DHT22;69034;49.444;7.758;2023-12-20T07:04:29;7.00;79.90
79571;DHT22;69034;49.444;7.758;2023-12-20T07:08:29;6.90;79.90
79571;DHT22;69034;49.444;7.758;2023-12-20T07:12:30;6.90;79.90
79571;DHT22;69034;49.444;7.758;2023-12-20T07:16:31;6.90;79.90
79571;DHT22;69034;49.444;7.758;2023-12-20T07:20:32;6.90;79.80
79571;DHT22;69034;49.444;7.758;2023-12-20T07:24:33;6.90;79.90
79571;DHT22;69034;49.444;7.758;2023-12-20T07:28:34;7.00;79.90
79571;DHT22;69034;49.444;7.758;2023-12-20T07:32:34;7.00;79.90
79571;DHT22;69034;49.444;7.758;2023-12-20T07:36:35;7.00;79.90
79571;DHT22;69034;49.444;7.758;2023-12-20T07:40:35;7.00;79.80
79571;DHT22;69034;49.444;7.758;2023-12-20T07:44:36;7.00;79.80
79571;DHT22;69034;49.444;7.758;2023-12-20T07:48:37;7.00;79.70
79571;DHT22;69034;49.444;7.758;2023-12-20T07:52:38;7.00;79.50
79571;DHT22;69034;49.444;7.758;2023-12-20T07:56:38;7.10;79.50
79571;DHT22;69034;49.444;7.758;2023-12-20T08:00:40;7.10;79.50
79571;DHT22;69034;49.444;7.758;2023-12-20T08:04:41;7.10;79.40
79571;DHT22;69034;49.444;7.758;2023-12-20T08:08:41;7.10;79.30
79571;DHT22;69034;49.444;7.758;2023-12-20T08:12:42;7.10;79.30
79571;DHT22;69034;49.444;7.758;2023-12-20T08:16:43;7.20;79.30
79571;DHT22;69034;49.444;7.758;2023-12-20T08:20:43;7.30;79.20
79571;DHT22;69034;49.444;7.758;2023-12-20T08:24:44;7.40;79.00
79571;DHT22;69034;49.444;7.758;2023-12-20T08:28:44;7.50;78.80
79571;DHT22;69034;49.444;7.758;2023-12-20T08:32:45;7.60;78.80
79571;DHT22;69034;49.444;7.758;2023-12-20T08:36:46;7.70;78.80
79571;DHT22;69034;49.444;7.758;2023-12-20T08:40:46;7.80;78.70
79571;DHT22;69034;49.444;7.758;2023-12-20T08:44:48;7.90;78.60
79571;DHT22;69034;49.444;7.758;2023-12-20T08:48:49;8.00;78.40
79571;DHT22;69034;49.444;7.758;2023-12-20T08:52:50;8.30;77.90
79571;DHT22;69034;49.444;7.758;2023-12-20T08:56:50;8.50;77.70
79571;DHT22;69034;49.444;7.758;2023-12-20T09:00:51;8.70;77.40
79571;DHT22;69034;49.444;7.758;2023-12-20T09:04:51;8.90;77.20
79571;DHT22;69034;49.444;7.758;2023-12-20T09:08:52;9.00;77.20
79571;DHT22;69034;49.444;7.758;2023-12-20T09:12:53;9.00;77.20
79571;DHT22;69034;49.444;7.758;2023-12-20T09:16:57;9.10;77.20
79571;DHT22;69034;49.444;7.758;2023-12-20T09:20:58;9.20;77.20
79571;DHT22;69034;49.444;7.758;2023-12-20T09:24:58;9.20;77.10
79571;DHT22;69034;49.444;7.758;2023-12-20T09:28:59;9.30;77.10
79571;DHT22;69034;49.444;7.758;2023-12-20T09:32:59;9.30;77.00
79571;DHT22;69034;49.444;7.758;2023-12-20T09:37:00;9.40;76.90
79571;DHT22;69034;49.444;7.758;2023-12-20T09:41:01;9.50;76.70
79571;DHT22;69034;49.444;7.758;2023-12-20T09:45:09;9.60;76.70
79571;DHT22;69034;49.444;7.758;2023-12-20T09:49:12;9.60;76.50
79571;DHT22;69034;49.444;7.758;2023-12-20T09:53:17;9.50;76.80
79571;DHT22;69034;49.444;7.758;2023-12-20T09:57:19;9.50;77.00
79571;DHT22;69034;49.444;7.758;2023-12-20T10:01:21;9.40;77.00
79571;DHT22;69034;49.444;7.758;2023-12-20T10:05:27;10.00;77.30
79571;DHT22;69034;49.444;7.758;2023-12-20T10:09:28;10.20;76.30
79571;DHT22;69034;49.444;7.758;2023-12-20T10:13:31;10.00;76.30
79571;DHT22;69034;49.444;7.758;2023-12-20T10:17:32;10.00;76.40
79571;DHT22;69034;49.444;7.758;2023-12-20T10:21:33;9.80;76.60
79571;DHT22;69034;49.444;7.758;2023-12-20T10:25:33;9.70;76.80
79571;DHT22;69034;49.444;7.758;2023-12-20T10:29:35;9.60;76.90
79571;DHT22;69034;49.444;7.758;2023-12-20T10:33:36;9.50;77.00
79571;DHT22;69034;49.444;7.758;2023-12-20T10:37:39;9.50;76.90
79571;DHT22;69034;49.444;7.758;2023-12-20T10:41:40;9.50;76.80
79571;DHT22;69034;49.444;7.758;2023-12-20T10:45:42;9.50;76.80
79571;DHT22;69034;49.444;7.758;2023-12-20T10:49:46;9.30;77.00
79571;DHT22;69034;49.444;7.758;2023-12-20T10:53:47;9.20;77.20
79571;DHT22;69034;49.444;7.758;2023-12-20T10:58:11;9.20;77.10
79571;DHT22;69034;49.444;7.758;2023-12-20T11:02:12;9.20;77.00
79571;DHT22;69034;49.444;7.758;2023-12-20T11:15:07;9.30;76.70
79571;DHT22;69034;49.444;7.758;2023-12-20T11:19:07;9.30;76.60
79571;DHT22;69034;49.444;7.758;2023-12-20T11:23:09;9.40;76.60
79571;DHT22;69034;49.444;7.758;2023-12-20T11:27:10;9.50;76.30
79571;DHT22;69034;49.444;7.758;2023-12-20T11:31:13;9.60;76.20
79571;DHT22;69034;49.444;7.758;2023-12-20T11:39:20;10.00;75.20
79571;DHT22;69034;49.444;7.758;2023-12-20T11:43:38;10.10;75.00
79571;DHT22;69034;49.444;7.758;2023-12-20T11:47:39;10.20;74.80
79571;DHT22;69034;49.444;7.758;2023-12-20T11:51:41;10.20;74.90
79571;DHT22;69034;49.444;7.758;2023-12-20T11:55:49;10.30;74.70
79571;DHT22;69034;49.444;7.758;2023-12-20T11:59:50;10.30;74.90
79571;DHT22;69034;49.444;7.758;2023-12-20T12:04:03;10.20;75.00
79571;DHT22;69034;49.444;7.758;2023-12-20T12:08:04;10.20;75.10
79571;DHT22;69034;49.444;7.758;2023-12-20T12:12:05;10.10;75.20
79571;DHT22;69034;49.444;7.758;2023-12-20T12:16:06;10.00;75.20
79571;DHT22;69034;49.444;7.758;2023-12-20T12:20:07;9.90;76.50
79571;DHT22;69034;49.444;7.758;2023-12-20T12:24:10;11.70;76.70
79571;DHT22;69034;49.444;7.758;2023-12-20T12:28:11;13.10;73.40
79571;DHT22;69034;49.444;7.758;2023-12-20T12:32:11;13.00;72.10
79571;DHT22;69034;49.444;7.758;2023-12-20T12:36:12;12.50;72.10
79571;DHT22;69034;49.444;7.758;2023-12-20T12:40:16;12.10;72.70
79571;DHT22;69034;49.444;7.758;2023-12-20T12:44:17;11.70;72.60
79571;DHT22;69034;49.444;7.758;2023-12-20T12:48:18;11.50;72.60
79571;DHT22;69034;49.444;7.758;2023-12-20T12:52:19;11.40;72.60
79571;DHT22;69034;49.444;7.758;2023-12-20T12:56:20;11.60;72.00
79571;DHT22;69034;49.444;7.758;2023-12-20T13:00:22;11.90;71.10
79571;DHT22;69034;49.444;7.758;2023-12-20T13:04:23;12.00;70.70
79571;DHT22;69034;49.444;7.758;2023-12-20T13:08:24;12.20;70.10
79571;DHT22;69034;49.444;7.758;2023-12-20T13:12:25;12.40;69.70
79571;DHT22;69034;49.444;7.758;2023-12-20T13:16:25;12.60;69.30
79571;DHT22;69034;49.444;7.758;2023-12-20T13:20:26;12.60;69.20
79571;DHT22;69034;49.444;7.758;2023-12-20T13:24:27;12.60;69.10
79571;DHT22;69034;49.444;7.758;2023-12-20T13:28:27;12.60;68.90
79571;DHT22;69034;49.444;7.758;2023-12-20T13:32:28;12.30;69.40
79571;DHT22;69034;49.444;7.758;2023-12-20T13:36:29;12.00;69.60
79571;DHT22;69034;49.444;7.758;2023-12-20T13:46:11;11.60;69.70
79571;DHT22;69034;49.444;7.758;2023-12-20T13:50:17;11.50;69.60
79571;DHT22;69034;49.444;7.758;2023-12-20T13:54:29;11.40;69.70
79571;DHT22;69034;49.444;7.758;2023-12-20T13:58:40;11.30;69.80
79571;DHT22;69034;49.444;7.758;2023-12-20T14:02:44;11.10;70.10
79571;DHT22;69034;49.444;7.758;2023-12-20T14:06:46;11.00;70.40
79571;DHT22;69034;49.444;7.758;2023-12-20T14:10:47;10.90;70.50
79571;DHT22;69034;49.444;7.758;2023-12-20T14:14:47;10.70;70.90
79571;DHT22;69034;49.444;7.758;2023-12-20T14:18:48;10.80;70.80
79571;DHT22;69034;49.444;7.758;2023-12-20T14:22:48;10.70;70.90
79571;DHT22;69034;49.444;7.758;2023-12-20T14:26:49;10.50;71.40
79571;DHT22;69034;49.444;7.758;2023-12-20T14:30:50;10.40;71.70
79571;DHT22;69034;49.444;7.758;2023-12-20T14:34:50;10.30;71.80
79571;DHT22;69034;49.444;7.758;2023-12-20T14:38:51;10.30;72.00
79571;DHT22;69034;49.444;7.758;2023-12-20T14:42:52;10.20;72.30
79571;DHT22;69034;49.444;7.758;2023-12-20T14:46:53;10.00;72.50
79571;DHT22;69034;49.444;7.758;2023-12-20T14:50:54;10.00;72.70
79571;DHT22;69034;49.444;7.758;2023-12-20T14:54:54;9.90;73.00
79571;DHT22;69034;49.444;7.758;2023-12-20T14:58:55;9.80;73.10
79571;DHT22;69034;49.444;7.758;2023-12-20T15:02:55;9.80;73.30
79571;DHT22;69034;49.444;7.758;2023-12-20T15:06:56;9.80;73.40
79571;DHT22;69034;49.444;7.758;2023-12-20T15:10:57;9.70;73.50
79571;DHT22;69034;49.444;7.758;2023-12-20T15:14:59;9.70;73.60
79571;DHT22;69034;49.444;7.758;2023-12-20T15:19:00;9.60;73.70
79571;DHT22;69034;49.444;7.758;2023-12-20T15:23:03;9.50;73.90
79571;DHT22;69034;49.444;7.758;2023-12-20T15:27:07;9.40;74.10
79571;DHT22;69034;49.444;7.758;2023-12-20T15:31:08;9.40;74.30
79571;DHT22;69034;49.444;7.758;2023-12-20T15:35:08;9.30;74.40
79571;DHT22;69034;49.444;7.758;2023-12-20T15:39:09;9.30;74.60
79571;DHT22;69034;49.444;7.758;2023-12-20T15:43:10;9.20;74.70
79571;DHT22;69034;49.444;7.758;2023-12-20T15:47:11;9.20;74.80
79571;DHT22;69034;49.444;7.758;2023-12-20T15:51:11;9.20;75.00
79571;DHT22;69034;49.444;7.758;2023-12-20T15:55:12;9.10;75.10
79571;DHT22;69034;49.444;7.758;2023-12-20T15:59:13;9.10;75.20
79571;DHT22;69034;49.444;7.758;2023-12-20T16:03:13;9.10;75.30
79571;DHT22;69034;49.444;7.758;2023-12-20T16:07:14;9.00;75.40
79571;DHT22;69034;49.444;7.758;2023-12-20T16:11:16;9.00;75.50
79571;DHT22;69034;49.444;7.758;2023-12-20T16:15:17;9.00;75.60
79571;DHT22;69034;49.444;7.758;2023-12-20T16:19:18;9.00;75.70
79571;DHT22;69034;49.444;7.758;2023-12-20T16:23:18;9.00;75.90
79571;DHT22;69034;49.444;7.758;2023-12-20T16:27:19;8.90;75.90
79571;DHT22;69034;49.444;7.758;2023-12-20T16:31:20;8.90;76.00
79571;DHT22;69034;49.444;7.758;2023-12-20T16:35:20;8.90;76.00
79571;DHT22;69034;49.444;7.758;2023-12-20T16:39:21;8.90;76.10
79571;DHT22;69034;49.444;7.758;2023-12-20T16:43:22;8.90;76.20
79571;DHT22;69034;49.444;7.758;2023-12-20T16:47:23;8.90;76.20
79571;DHT22;69034;49.444;7.758;2023-12-20T16:51:23;8.90;76.30
79571;DHT22;69034;49.444;7.758;2023-12-20T16:55:24;8.80;76.40
79571;DHT22;69034;49.444;7.758;2023-12-20T16:59:25;8.80;76.50
79571;DHT22;69034;49.444;7.758;2023-12-20T17:03:25;8.80;76.60
79571;DHT22;69034;49.444;7.758;2023-12-20T17:07:26;8.80;76.70
79571;DHT22;69034;49.444;7.758;2023-12-20T17:11:28;8.80;76.80
79571;DHT22;69034;49.444;7.758;2023-12-20T17:15:28;8.80;76.80
79571;DHT22;69034;49.444;7.758;2023-12-20T17:19:29;8.80;76.90
79571;DHT22;69034;49.444;7.758;2023-12-20T17:23:31;8.90;76.90
79571;DHT22;69034;49.444;7.758;2023-12-20T17:27:31;8.80;76.80
79571;DHT22;69034;49.444;7.758;2023-12-20T17:31:32;8.80;77.00
79571;DHT22;69034;49.444;7.758;2023-12-20T17:35:33;8.70;77.10
79571;DHT22;69034;49.444;7.758;2023-12-20T17:39:34;8.70;77.10
79571;DHT22;69034;49.444;7.758;2023-12-20T17:43:36;8.70;77.20
79571;DHT22;69034;49.444;7.758;2023-12-20T17:47:37;8.70;77.30
79571;DHT22;69034;49.444;7.758;2023-12-20T17:51:38;8.70;77.30
79571;DHT22;69034;49.444;7.758;2023-12-20T17:55:38;8.60;77.30
79571;DHT22;69034;49.444;7.758;2023-12-20T17:59:39;8.60;77.40
79571;DHT22;69034;49.444;7.758;2023-12-20T18:03:40;8.60;77.50
79571;DHT22;69034;49.444;7.758;2023-12-20T18:07:42;8.70;77.50
79571;DHT22;69034;49.444;7.758;2023-12-20T18:11:44;8.70;77.40
79571;DHT22;69034;49.444;7.758;2023-12-20T18:15:45;8.70;77.60
79571;DHT22;69034;49.444;7.758;2023-12-20T18:19:46;8.60;77.60
79571;DHT22;69034;49.444;7.758;2023-12-20T18:23:47;8.60;77.70
79571;DHT22;69034;49.444;7.758;2023-12-20T18:27:48;8.60;77.70
79571;DHT22;69034;49.444;7.758;2023-12-20T18:31:49;8.60;77.80
79571;DHT22;69034;49.444;7.758;2023-12-20T18:35:50;8.60;77.80
79571;DHT22;69034;49.444;7.758;2023-12-20T18:39:51;8.60;77.90
79571;DHT22;69034;49.444;7.758;2023-12-20T18:43:51;8.50;77.90
79571;DHT22;69034;49.444;7.758;2023-12-20T18:47:52;8.50;78.00
79571;DHT22;69034;49.444;7.758;2023-12-20T18:51:53;8.50;78.00
79571;DHT22;69034;49.444;7.758;2023-12-20T18:55:54;8.50;78.20
79571;DHT22;69034;49.444;7.758;2023-12-20T18:59:55;8.60;78.30
79571;DHT22;69034;49.444;7.758;2023-12-20T19:03:55;8.50;78.20
79571;DHT22;69034;49.444;7.758;2023-12-20T19:07:56;8.50;78.30
79571;DHT22;69034;49.444;7.758;2023-12-20T19:11:56;8.50;78.30
79571;DHT22;69034;49.444;7.758;2023-12-20T19:16:01;8.50;78.40
79571;DHT22;69034;49.444;7.758;2023-12-20T19:20:01;8.50;78.40
79571;DHT22;69034;49.444;7.758;2023-12-20T19:24:05;8.50;78.50
79571;DHT22;69034;49.444;7.758;2023-12-20T19:28:05;8.50;78.50
79571;DHT22;69034;49.444;7.758;2023-12-20T19:32:06;8.50;78.50
79571;DHT22;69034;49.444;7.758;2023-12-20T19:36:09;8.50;78.60
79571;DHT22;69034;49.444;7.758;2023-12-20T19:40:10;8.50;78.50
79571;DHT22;69034;49.444;7.758;2023-12-20T19:44:11;8.50;78.50
79571;DHT22;69034;49.444;7.758;2023-12-20T19:48:14;8.50;78.50
79571;DHT22;69034;49.444;7.758;2023-12-20T19:52:15;8.50;78.60
79571;DHT22;69034;49.444;7.758;2023-12-20T19:56:15;8.50;78.60
79571;DHT22;69034;49.444;7.758;2023-12-20T20:00:16;8.50;78.60
79571;DHT22;69034;49.444;7.758;2023-12-20T20:04:16;8.50;78.70
79571;DHT22;69034;49.444;7.758;2023-12-20T20:08:18;8.50;78.70
79571;DHT22;69034;49.444;7.758;2023-12-20T20:12:19;8.50;78.70
79571;DHT22;69034;49.444;7.758;2023-12-20T20:16:19;8.50;78.80
79571;DHT22;69034;49.444;7.758;2023-12-20T20:20:20;8.80;79.00
79571;DHT22;69034;49.444;7.758;2023-12-20T20:24:21;8.90;78.50
79571;DHT22;69034;49.444;7.758;2023-12-20T20:28:22;8.80;78.70
79571;DHT22;69034;49.444;7.758;2023-12-20T20:32:28;8.70;78.80
79571;DHT22;69034;49.444;7.758;2023-12-20T20:36:29;8.70;78.90
79571;DHT22;69034;49.444;7.758;2023-12-20T20:40:29;8.60;79.00
79571;DHT22;69034;49.444;7.758;2023-12-20T20:44:30;8.60;79.00
79571;DHT22;69034;49.444;7.758;2023-12-20T20:48:32;8.60;79.00
79571;DHT22;69034;49.444;7.758;2023-12-20T20:52:33;8.60;79.00
79571;DHT22;69034;49.444;7.758;2023-12-20T20:56:33;8.60;79.10
79571;DHT22;69034;49.444;7.758;2023-12-20T21:00:34;8.60;79.00
79571;DHT22;69034;49.444;7.758;2023-12-20T21:04:35;8.60;79.10
79571;DHT22;69034;49.444;7.758;2023-12-20T21:08:35;8.60;79.20
79571;DHT22;69034;49.444;7.758;2023-12-20T21:12:36;8.70;79.90
79571;DHT22;69034;49.444;7.758;2023-12-20T21:16:38;9.00;79.10
79571;DHT22;69034;49.444;7.758;2023-12-20T21:20:39;8.90;78.90
79571;DHT22;69034;49.444;7.758;2023-12-20T21:24:39;8.80;79.20
79571;DHT22;69034;49.444;7.758;2023-12-20T21:28:40;8.80;79.20
79571;DHT22;69034;49.444;7.758;2023-12-20T21:32:41;8.70;79.30
79571;DHT22;69034;49.444;7.758;2023-12-20T21:36:42;8.70;79.50
79571;DHT22;69034;49.444;7.758;2023-12-20T21:40:43;8.70;79.50
79571;DHT22;69034;49.444;7.758;2023-12-20T21:44:44;8.70;79.70
79571;DHT22;69034;49.444;7.758;2023-12-20T21:48:44;8.70;79.70
79571;DHT22;69034;49.444;7.758;2023-12-20T21:52:45;8.90;79.70
79571;DHT22;69034;49.444;7.758;2023-12-20T21:56:46;9.00;79.60
79571;DHT22;69034;49.444;7.758;2023-12-20T22:00:48;9.10;79.40
79571;DHT22;69034;49.444;7.758;2023-12-20T22:04:49;9.30;79.20
79571;DHT22;69034;49.444;7.758;2023-12-20T22:08:50;9.40;78.90
79571;DHT22;69034;49.444;7.758;2023-12-20T22:12:50;9.50;78.70
79571;DHT22;69034;49.444;7.758;2023-12-20T22:16:51;9.60;78.50
79571;DHT22;69034;49.444;7.758;2023-12-20T22:20:52;9.60;78.40
79571;DHT22;69034;49.444;7.758;2023-12-20T22:24:53;9.70;78.30
79571;DHT22;69034;49.444;7.758;2023-12-20T22:28:54;9.70;78.20
79571;DHT22;69034;49.444;7.758;2023-12-20T22:32:55;9.80;78.10
79571;DHT22;69034;49.444;7.758;2023-12-20T22:36:55;9.80;78.00
79571;DHT22;69034;49.444;7.758;2023-12-20T22:40:57;9.80;77.90
79571;DHT22;69034;49.444;7.758;2023-12-20T22:44:57;9.80;77.90
79571;DHT22;69034;49.444;7.758;2023-12-20T22:48:58;9.90;77.90
79571;DHT22;69034;49.444;7.758;2023-12-20T22:53:01;9.90;77.80
79571;DHT22;69034;49.444;7.758;2023-12-20T22:57:01;9.90;77.80
79571;DHT22;69034;49.444;7.758;2023-12-20T23:01:02;9.90;77.70
79571;DHT22;69034;49.444;7.758;2023-12-20T23:05:03;9.90;77.70
79571;DHT22;69034;49.444;7.758;2023-12-20T23:09:04;9.80;77.70
79571;DHT22;69034;49.444;7.758;2023-12-20T23:13:04;9.60;78.00
79571;DHT22;69034;49.444;7.758;2023-12-20T23:17:05;9.40;78.30
79571;DHT22;69034;49.444;7.758;2023-12-20T23:21:06;9.30;78.50
79571;DHT22;69034;49.444;7.758;2023-12-20T23:25:06;9.20;78.60
79571;DHT22;69034;49.444;7.758;2023-12-20T23:29:07;9.20;78.80
79571;DHT22;69034;49.444;7.758;2023-12-20T23:33:08;9.10;78.90
79571;DHT22;69034;49.444;7.758;2023-12-20T23:37:08;9.10;79.00
79571;DHT22;69034;49.444;7.758;2023-12-20T23:41:11;9.00;79.00
79571;DHT22;69034;49.444;7.758;2023-12-20T23:45:12;9.00;79.20
79571;DHT22;69034;49.444;7.758;2023-12-20T23:49:13;8.90;79.20
79571;DHT22;69034;49.444;7.758;2023-12-20T23:53:13;8.90;79.40
79571;DHT22;69034;49.444;7.758;2023-12-20T23:57:14;8.90;79.40
